createdAt,value
2017-07-28T00:02:26.396Z,98137.34
2017-07-28T00:04:55.698Z,98136.25
2017-07-28T00:07:25.300Z,98146.74
2017-07-28T00:09:54.741Z,98154.32
2017-07-28T00:12:37.578Z,98148.33
2017-07-28T00:15:07.194Z,98150.70
2017-07-28T00:17:36.700Z,98143.41
2017-07-28T00:20:07.705Z,98148.81
2017-07-28T00:22:37.110Z,98153.65
2017-07-28T00:25:06.614Z,98152.97
2017-07-28T00:27:36.256Z,98154.54
2017-07-28T00:30:05.823Z,98156.72
2017-07-28T00:32:35.166Z,98148.15
2017-07-28T00:35:05.060Z,98149.40
2017-07-28T00:37:34.454Z,98146.72
2017-07-28T00:40:04.036Z,98145.17
2017-07-28T00:42:33.728Z,98141.25
2017-07-28T00:45:03.330Z,98144.91
2017-07-28T00:47:32.881Z,98141.09
2017-07-28T00:50:02.745Z,98139.17
2017-07-28T00:52:31.891Z,98141.46
2017-07-28T00:55:01.808Z,98143.19
2017-07-28T00:57:31.550Z,98150.57
2017-07-28T01:00:00.999Z,98188.97
2017-07-28T01:02:30.562Z,98164.27
2017-07-28T01:05:00.460Z,98180.27
2017-07-28T01:07:29.737Z,98175.95
2017-07-28T01:09:59.115Z,98176.09
2017-07-28T01:12:29.038Z,98183.83
2017-07-28T01:14:58.554Z,98180.24
2017-07-28T01:17:27.850Z,98183.16
2017-07-28T01:19:57.727Z,98184.23
2017-07-28T01:22:27.314Z,98180.24
2017-07-28T01:24:56.605Z,98182.77
2017-07-28T01:27:26.526Z,98194.99
2017-07-28T01:29:55.937Z,98197.45
2017-07-28T01:32:25.427Z,98188.41
2017-07-28T01:34:55.046Z,98191.53
2017-07-28T01:37:24.515Z,98199.53
2017-07-28T01:39:53.692Z,98203.00
2017-07-28T01:42:24.459Z,98209.95
2017-07-28T01:44:53.959Z,98203.33
2017-07-28T01:47:24.631Z,98206.78
2017-07-28T01:49:54.520Z,98202.50
2017-07-28T01:52:24.583Z,98202.92
2017-07-28T01:54:54.015Z,98212.38
2017-07-28T01:57:24.627Z,98227.20
2017-07-28T01:59:54.249Z,98230.33
2017-07-28T02:02:23.755Z,98232.50
2017-07-28T02:04:53.807Z,98238.70
2017-07-28T02:07:24.955Z,98243.15
2017-07-28T02:09:54.414Z,98240.36
2017-07-28T02:12:25.066Z,98232.08
2017-07-28T02:14:54.213Z,98229.91
2017-07-28T02:17:24.179Z,98231.76
2017-07-28T02:19:53.619Z,98236.79
2017-07-28T02:22:24.002Z,98237.45
2017-07-28T02:24:53.187Z,98245.14
2017-07-28T02:27:24.294Z,98246.39
2017-07-28T02:29:53.753Z,98241.00
2017-07-28T02:32:24.635Z,98235.02
2017-07-28T02:34:54.398Z,98235.48
2017-07-28T02:37:24.268Z,98238.83
2017-07-28T02:39:53.703Z,98235.13
2017-07-28T02:42:24.514Z,98234.27
2017-07-28T02:44:54.024Z,98237.79
2017-07-28T02:47:24.626Z,98240.53
2017-07-28T02:49:54.225Z,98239.52
2017-07-28T02:52:24.159Z,98239.56
2017-07-28T02:54:53.799Z,98235.94
2017-07-28T02:57:24.207Z,98235.30
2017-07-28T02:59:53.554Z,98236.52
2017-07-28T03:02:25.840Z,98238.38
2017-07-28T03:04:55.750Z,98231.16
2017-07-28T03:07:25.319Z,98234.44
2017-07-28T03:09:54.851Z,98233.22
2017-07-28T03:12:24.699Z,98237.16
2017-07-28T03:14:54.171Z,98236.81
2017-07-28T03:17:24.367Z,98240.81
2017-07-28T03:19:54.008Z,98249.69
2017-07-28T03:22:24.026Z,98263.17
2017-07-28T03:24:53.531Z,98264.27
2017-07-28T03:27:24.309Z,98270.73
2017-07-28T03:29:53.823Z,98274.22
2017-07-28T03:32:24.494Z,98277.08
2017-07-28T03:34:54.150Z,98276.91
2017-07-28T03:37:24.526Z,98277.41
2017-07-28T03:39:53.675Z,98280.73
2017-07-28T03:42:25.428Z,98286.19
2017-07-28T03:44:54.598Z,98294.70
2017-07-28T03:47:26.159Z,98293.34
2017-07-28T03:49:56.093Z,98289.59
2017-07-28T03:52:25.816Z,98297.14
2017-07-28T03:54:55.414Z,98295.43
2017-07-28T03:57:26.675Z,98294.51
2017-07-28T03:59:56.118Z,98301.11
2017-07-28T04:02:26.565Z,98308.05
2017-07-28T04:04:56.007Z,98307.45
2017-07-28T04:07:25.288Z,98308.74
2017-07-28T04:09:54.443Z,98313.41
2017-07-28T04:12:25.494Z,98321.64
2017-07-28T04:14:54.843Z,98321.38
2017-07-28T04:17:25.307Z,98331.89
2017-07-28T04:19:54.780Z,98340.13
2017-07-28T04:22:26.684Z,98343.64
2017-07-28T04:24:56.039Z,98343.55
2017-07-28T04:27:25.314Z,98345.64
2017-07-28T04:29:54.482Z,98337.55
2017-07-28T04:32:26.375Z,98342.49
2017-07-28T04:34:55.880Z,98350.16
2017-07-28T04:37:25.700Z,98345.63
2017-07-28T04:39:54.928Z,98350.85
2017-07-28T04:42:25.419Z,98349.42
2017-07-28T04:44:54.600Z,98345.02
2017-07-28T04:47:26.116Z,98352.65
2017-07-28T04:49:56.237Z,98352.88
2017-07-28T04:52:25.703Z,98362.68
2017-07-28T04:54:55.234Z,98372.71
2017-07-28T04:57:25.139Z,98371.52
2017-07-28T04:59:54.594Z,98373.69
2017-07-28T05:02:24.255Z,98383.67
2017-07-28T05:04:53.771Z,98386.82
2017-07-28T05:07:24.427Z,98390.09
2017-07-28T05:09:53.831Z,98394.91
2017-07-28T05:12:24.208Z,98402.95
2017-07-28T05:14:53.683Z,98407.80
2017-07-28T05:17:24.379Z,98416.59
2017-07-28T05:19:53.594Z,98417.79
2017-07-28T05:22:24.834Z,98410.66
2017-07-28T05:24:54.049Z,98403.13
2017-07-28T05:27:24.399Z,98396.18
2017-07-28T05:29:54.500Z,98391.92
2017-07-28T05:32:24.606Z,98394.05
2017-07-28T05:34:54.183Z,98395.78
2017-07-28T05:37:24.068Z,98397.80
2017-07-28T05:39:53.245Z,98410.15
2017-07-28T05:42:23.373Z,98414.27
2017-07-28T05:44:52.799Z,98414.20
2017-07-28T05:47:24.900Z,98415.50
2017-07-28T05:49:54.137Z,98422.28
2017-07-28T05:52:27.466Z,98420.46
2017-07-28T05:54:56.642Z,98418.70
2017-07-28T05:57:25.988Z,98426.05
2017-07-28T05:59:55.920Z,98428.78
2017-07-28T06:02:25.150Z,98427.53
2017-07-28T06:04:54.658Z,98428.27
2017-07-28T06:07:24.147Z,98431.47
2017-07-28T06:09:53.380Z,98432.34
2017-07-28T06:12:22.802Z,98439.08
2017-07-28T06:14:52.878Z,98434.16
2017-07-28T06:17:22.179Z,98432.41
2017-07-28T06:19:51.380Z,98432.55
2017-07-28T06:22:20.802Z,98435.42
2017-07-28T06:24:50.274Z,98436.03
2017-07-28T06:27:19.746Z,98432.13
2017-07-28T06:29:50.634Z,98440.03
2017-07-28T06:32:19.906Z,98442.62
2017-07-28T06:34:50.522Z,98447.49
2017-07-28T06:37:21.292Z,98453.52
2017-07-28T06:39:50.560Z,98460.33
2017-07-28T06:42:19.733Z,98462.03
2017-07-28T06:44:49.803Z,98453.12
2017-07-28T06:47:19.111Z,98448.27
2017-07-28T06:49:48.378Z,98445.63
2017-07-28T06:52:17.947Z,98455.06
2017-07-28T06:54:47.939Z,98458.70
2017-07-28T06:57:17.099Z,98460.43
2017-07-28T06:59:49.067Z,98462.33
2017-07-28T07:02:18.332Z,98466.70
2017-07-28T07:04:47.601Z,98465.02
2017-07-28T07:07:17.034Z,98468.36
2017-07-28T07:09:46.559Z,98473.49
2017-07-28T07:12:16.029Z,98471.41
2017-07-28T07:14:45.585Z,98481.92
2017-07-28T07:17:14.855Z,98475.50
2017-07-28T07:19:44.342Z,98478.55
2017-07-28T07:22:13.938Z,98478.11
2017-07-28T07:24:44.551Z,98479.08
2017-07-28T07:27:13.868Z,98480.62
2017-07-28T07:29:43.574Z,98479.75
2017-07-28T07:32:12.892Z,98482.30
2017-07-28T07:34:42.123Z,98487.44
2017-07-28T07:37:11.683Z,98474.30
2017-07-28T07:39:40.850Z,98478.38
2017-07-28T07:42:09.994Z,98485.16
2017-07-28T07:44:39.452Z,98493.59
2017-07-28T07:47:08.592Z,98495.50
2017-07-28T07:49:37.762Z,98493.16
2017-07-28T07:52:07.208Z,98498.09
2017-07-28T07:54:36.355Z,98505.95
2017-07-28T07:57:05.855Z,98502.02
2017-07-28T07:59:35.360Z,98504.92
2017-07-28T08:02:04.554Z,98513.45
2017-07-28T08:04:34.251Z,98520.95
2017-07-28T08:07:03.730Z,98516.05
2017-07-28T08:09:32.943Z,98520.23
2017-07-28T08:12:02.163Z,98511.85
2017-07-28T08:14:31.620Z,98521.78
2017-07-28T08:17:01.832Z,98526.89
2017-07-28T08:19:31.019Z,98527.77
2017-07-28T08:22:01.767Z,98527.50
2017-07-28T08:24:31.007Z,98529.06
2017-07-28T08:27:01.267Z,98522.90
2017-07-28T08:29:30.719Z,98527.86
2017-07-28T08:32:00.927Z,98540.22
2017-07-28T08:34:30.144Z,98537.03
2017-07-28T08:37:02.666Z,98543.42
2017-07-28T08:39:32.229Z,98533.23
2017-07-28T08:42:02.918Z,98519.30
2017-07-28T08:44:32.467Z,98514.95
2017-07-28T08:47:03.174Z,98512.33
2017-07-28T08:49:32.385Z,98511.00
2017-07-28T08:52:03.200Z,98514.30
2017-07-28T08:54:32.345Z,98517.34
2017-07-28T08:57:01.979Z,98523.13
2017-07-28T08:59:31.422Z,98530.20
2017-07-28T09:02:02.854Z,98545.73
2017-07-28T09:04:32.026Z,98546.20
2017-07-28T09:07:02.653Z,98556.44
2017-07-28T09:09:32.121Z,98561.47
2017-07-28T09:12:01.818Z,98557.16
2017-07-28T09:14:31.282Z,98557.98
2017-07-28T09:17:05.788Z,98558.67
2017-07-28T09:19:35.305Z,98569.77
2017-07-28T09:22:04.750Z,98570.05
2017-07-28T09:24:34.491Z,98585.90
2017-07-28T09:27:04.063Z,98571.45
2017-07-28T09:29:33.220Z,98581.38
2017-07-28T09:32:02.462Z,98574.84
2017-07-28T09:34:31.898Z,98589.19
2017-07-28T09:37:01.724Z,98583.61
2017-07-28T09:39:30.922Z,98591.63
2017-07-28T09:42:03.278Z,98607.35
2017-07-28T09:44:32.438Z,98602.38
2017-07-28T09:47:01.850Z,98593.97
2017-07-28T09:49:31.307Z,98587.25
2017-07-28T09:52:01.747Z,98583.13
2017-07-28T09:54:30.950Z,98586.00
2017-07-28T09:57:03.226Z,98581.92
2017-07-28T09:59:33.455Z,98588.19
2017-07-28T10:02:04.408Z,98591.94
2017-07-28T10:04:34.111Z,98590.89
2017-07-28T10:07:03.306Z,98588.08
2017-07-28T10:09:32.546Z,98595.74
2017-07-28T10:12:02.426Z,98596.07
2017-07-28T10:14:31.707Z,98587.19
2017-07-28T10:17:02.705Z,98596.00
2017-07-28T10:19:32.183Z,98593.52
2017-07-28T10:22:01.919Z,98595.83
2017-07-28T10:24:31.140Z,98603.94
2017-07-28T10:27:02.118Z,98594.02
2017-07-28T10:29:31.310Z,98598.03
2017-07-28T10:32:01.863Z,98609.88
2017-07-28T10:34:31.359Z,98612.59
2017-07-28T10:37:03.939Z,98621.67
2017-07-28T10:39:33.394Z,98618.38
2017-07-28T10:42:02.853Z,98619.97
2017-07-28T10:44:31.998Z,98615.31
2017-07-28T10:47:02.143Z,98610.30
2017-07-28T10:49:31.770Z,98611.67
2017-07-28T10:52:02.007Z,98618.28
2017-07-28T10:54:31.387Z,98617.17
2017-07-28T10:57:02.115Z,98617.07
2017-07-28T10:59:31.386Z,98623.13
2017-07-28T11:02:02.477Z,98622.46
2017-07-28T11:04:31.991Z,98629.98
2017-07-28T11:07:02.154Z,98626.28
2017-07-28T11:09:31.464Z,98631.64
2017-07-28T11:12:02.615Z,98625.66
2017-07-28T11:14:31.881Z,98628.26
2017-07-28T11:17:01.942Z,98626.77
2017-07-28T11:19:31.484Z,98624.05
2017-07-28T11:22:01.223Z,98616.42
2017-07-28T11:24:30.533Z,98621.56
2017-07-28T11:27:01.203Z,98614.53
2017-07-28T11:29:30.478Z,98617.81
2017-07-28T11:32:01.071Z,98609.42
2017-07-28T11:34:30.634Z,98608.17
2017-07-28T11:37:01.274Z,98607.92
2017-07-28T11:39:30.522Z,98609.78
2017-07-28T11:42:01.265Z,98602.71
2017-07-28T11:44:30.588Z,98615.20
2017-07-28T11:47:01.791Z,98616.65
2017-07-28T11:49:32.550Z,98617.95
2017-07-28T11:52:02.742Z,98607.45
2017-07-28T11:54:32.624Z,98623.06
2017-07-28T11:57:02.510Z,98622.14
2017-07-28T11:59:32.030Z,98634.81
2017-07-28T12:02:02.008Z,98628.06
2017-07-28T12:04:31.625Z,98630.98
2017-07-28T12:07:02.599Z,98635.50
2017-07-28T12:09:32.206Z,98635.40
2017-07-28T12:12:03.187Z,98635.50
2017-07-28T12:14:32.522Z,98640.28
2017-07-28T12:17:02.147Z,98641.95
2017-07-28T12:19:31.784Z,98640.09
2017-07-28T12:22:02.165Z,98647.67
2017-07-28T12:24:32.626Z,98642.46
2017-07-28T12:27:02.192Z,98644.35
2017-07-28T12:29:31.983Z,98640.09
2017-07-28T12:32:02.650Z,98640.77
2017-07-28T12:34:32.198Z,98651.52
2017-07-28T12:37:01.846Z,98641.32
2017-07-28T12:39:31.038Z,98639.58
2017-07-28T12:42:03.496Z,98637.93
2017-07-28T12:44:32.663Z,98649.81
2017-07-28T12:47:02.032Z,98653.91
2017-07-28T12:49:31.543Z,98664.77
2017-07-28T12:52:02.184Z,98660.29
2017-07-28T12:54:31.335Z,98651.65
2017-07-28T12:57:02.730Z,98648.94
2017-07-28T12:59:32.231Z,98656.30
2017-07-28T13:02:02.407Z,98656.52
2017-07-28T13:04:31.840Z,98660.05
2017-07-28T13:07:02.018Z,98644.64
2017-07-28T13:09:31.232Z,98644.48
2017-07-28T13:12:03.135Z,98646.48
2017-07-28T13:14:32.315Z,98644.65
2017-07-28T13:17:02.687Z,98652.06
2017-07-28T13:19:32.271Z,98661.00
2017-07-28T13:22:02.350Z,98645.23
2017-07-28T13:24:31.614Z,98654.22
2017-07-28T13:27:02.443Z,98642.47
2017-07-28T13:29:31.619Z,98650.66
2017-07-28T13:32:02.109Z,98652.20
2017-07-28T13:34:31.548Z,98645.30
2017-07-28T13:37:02.084Z,98641.91
2017-07-28T13:39:31.249Z,98641.34
2017-07-28T13:42:03.300Z,98641.02
2017-07-28T13:44:32.463Z,98639.42
2017-07-28T13:47:03.326Z,98636.39
2017-07-28T13:49:32.911Z,98647.75
2017-07-28T13:52:02.132Z,98651.61
2017-07-28T13:54:31.480Z,98652.05
2017-07-28T13:57:02.234Z,98647.81
2017-07-28T13:59:31.433Z,98652.84
2017-07-28T14:02:02.022Z,98635.16
2017-07-28T14:04:31.720Z,98653.52
2017-07-28T14:07:01.979Z,98643.53
2017-07-28T14:09:31.142Z,98638.44
2017-07-28T14:12:03.547Z,98633.23
2017-07-28T14:14:32.702Z,98638.67
2017-07-28T14:17:02.892Z,98641.02
2017-07-28T14:19:32.273Z,98644.67
2017-07-28T14:22:01.909Z,98635.70
2017-07-28T14:24:31.938Z,98634.17
2017-07-28T14:27:02.001Z,98629.63
2017-07-28T14:29:31.163Z,98634.94
2017-07-28T14:32:02.367Z,98639.30
2017-07-28T14:34:31.791Z,98644.40
2017-07-28T14:37:01.930Z,98642.77
2017-07-28T14:39:31.404Z,98633.39
2017-07-28T14:42:03.802Z,98646.28
2017-07-28T14:44:33.130Z,98643.42
2017-07-28T14:47:02.614Z,98643.33
2017-07-28T14:49:31.765Z,98643.64
2017-07-28T14:52:02.035Z,98642.86
2017-07-28T14:54:31.503Z,98641.17
2017-07-28T14:57:00.675Z,98643.22
2017-07-28T14:59:29.879Z,98639.98
2017-07-28T15:02:01.043Z,98644.73
2017-07-28T15:04:30.213Z,98652.23
2017-07-28T15:07:00.587Z,98655.05
2017-07-28T15:09:30.063Z,98653.91
2017-07-28T15:12:00.934Z,98656.58
2017-07-28T15:14:30.110Z,98650.55
2017-07-28T15:16:59.573Z,98657.15
2017-07-28T15:19:28.783Z,98653.91
2017-07-28T15:21:59.242Z,98654.63
2017-07-28T15:24:28.682Z,98653.64
2017-07-28T15:26:59.297Z,98651.69
2017-07-28T15:29:28.452Z,98653.14
2017-07-28T15:31:59.186Z,98656.92
2017-07-28T15:34:28.410Z,98662.23
2017-07-28T15:36:58.612Z,98659.59
2017-07-28T15:39:28.079Z,98661.80
2017-07-28T15:41:57.303Z,98667.63
2017-07-28T15:44:26.727Z,98664.76
2017-07-28T15:46:56.234Z,98664.22
2017-07-28T15:49:25.397Z,98670.31
2017-07-28T15:51:54.559Z,98674.23
2017-07-28T15:54:24.057Z,98674.30
2017-07-28T15:56:53.226Z,98677.47
2017-07-28T15:59:22.419Z,98682.91
2017-07-28T16:01:51.920Z,98683.05
2017-07-28T16:04:21.140Z,98688.69
2017-07-28T16:06:50.322Z,98690.50
2017-07-28T16:09:19.787Z,98691.98
2017-07-28T16:11:48.971Z,98698.30
2017-07-28T16:14:18.170Z,98705.19
2017-07-28T16:16:47.641Z,98701.58
2017-07-28T16:19:16.798Z,98702.47
2017-07-28T16:21:45.966Z,98705.29
2017-07-28T16:24:15.471Z,98704.05
2017-07-28T16:26:44.668Z,98707.79
2017-07-28T16:29:13.859Z,98711.33
2017-07-28T16:31:43.286Z,98710.51
2017-07-28T16:34:12.518Z,98717.38
2017-07-28T16:36:41.659Z,98714.77
2017-07-28T16:39:11.093Z,98720.91
2017-07-28T16:41:40.614Z,98717.28
2017-07-28T16:44:09.815Z,98723.84
2017-07-28T16:46:39.270Z,98728.94
2017-07-28T16:49:08.399Z,98724.97
2017-07-28T16:51:37.583Z,98724.84
2017-07-28T16:54:07.023Z,98729.73
2017-07-28T16:56:36.518Z,98733.58
2017-07-28T16:59:05.679Z,98732.80
2017-07-28T17:01:35.127Z,98729.48
2017-07-28T17:04:04.346Z,98734.23
2017-07-28T17:06:33.516Z,98735.80
2017-07-28T17:09:03.060Z,98741.91
2017-07-28T17:11:32.270Z,98740.11
2017-07-28T17:14:02.555Z,98739.49
2017-07-28T17:16:32.286Z,98749.69
2017-07-28T17:19:03.125Z,98749.31
2017-07-28T17:21:32.632Z,98761.27
2017-07-28T17:24:02.403Z,98758.50
2017-07-28T17:26:31.894Z,98759.95
2017-07-28T17:29:02.114Z,98763.53
2017-07-28T17:31:31.542Z,98765.13
2017-07-28T17:34:02.002Z,98762.86
2017-07-28T17:36:31.243Z,98768.80
2017-07-28T17:39:02.231Z,98766.61
2017-07-28T17:41:31.388Z,98768.17
2017-07-28T17:44:01.835Z,98769.54
2017-07-28T17:46:31.474Z,98770.89
2017-07-28T17:49:02.304Z,98775.47
2017-07-28T17:51:31.578Z,98774.01
2017-07-28T17:54:02.328Z,98775.78
2017-07-28T17:56:31.590Z,98779.01
2017-07-28T17:59:02.231Z,98783.11
2017-07-28T18:01:31.775Z,98785.30
2017-07-28T18:04:01.902Z,98791.13
2017-07-28T18:06:31.203Z,98796.56
2017-07-28T18:09:02.130Z,98794.60
2017-07-28T18:11:31.409Z,98796.44
2017-07-28T18:14:01.733Z,98793.01
2017-07-28T18:16:31.327Z,98792.20
2017-07-28T18:19:03.842Z,98792.99
2017-07-28T18:21:33.207Z,98788.83
2017-07-28T18:24:02.770Z,98796.31
2017-07-28T18:26:31.962Z,98800.61
2017-07-28T18:29:01.139Z,98797.48
2017-07-28T18:31:30.686Z,98806.95
2017-07-28T18:34:01.523Z,98806.53
2017-07-28T18:36:30.782Z,98803.67
2017-07-28T18:39:01.292Z,98811.73
2017-07-28T18:41:30.458Z,98803.05
2017-07-28T18:43:59.634Z,98808.75
2017-07-28T18:46:29.119Z,98815.60
2017-07-28T18:48:58.288Z,98816.23
2017-07-28T18:51:27.486Z,98818.32
2017-07-28T18:53:57.503Z,98814.73
2017-07-28T18:56:26.691Z,98822.55
2017-07-28T18:58:55.873Z,98820.41
2017-07-28T19:01:25.320Z,98824.14
2017-07-28T19:03:54.487Z,98834.89
2017-07-28T19:06:23.862Z,98842.19
2017-07-28T19:08:53.357Z,98847.94
2017-07-28T19:11:22.599Z,98850.25
2017-07-28T19:13:51.790Z,98851.23
2017-07-28T19:16:21.287Z,98858.10
2017-07-28T19:18:50.518Z,98852.03
2017-07-28T19:21:19.737Z,98849.50
2017-07-28T19:23:49.205Z,98854.74
2017-07-28T19:26:18.531Z,98852.38
2017-07-28T19:28:47.761Z,98855.92
2017-07-28T19:31:17.226Z,98858.94
2017-07-28T19:33:46.522Z,98857.98
2017-07-28T19:36:15.736Z,98863.09
2017-07-28T19:38:45.243Z,98859.14
2017-07-28T19:41:14.494Z,98865.79
2017-07-28T19:43:43.870Z,98863.22
2017-07-28T19:46:13.330Z,98864.53
2017-07-28T19:48:42.540Z,98867.77
2017-07-28T19:51:11.827Z,98865.14
2017-07-28T19:53:41.371Z,98870.88
2017-07-28T19:56:10.594Z,98871.56
2017-07-28T19:58:40.006Z,98864.11
2017-07-28T20:01:09.576Z,98866.73
2017-07-28T20:03:38.839Z,98869.62
2017-07-28T20:06:08.083Z,98869.20
2017-07-28T20:08:38.053Z,98866.37
2017-07-28T20:11:07.498Z,98864.23
2017-07-28T20:13:36.779Z,98853.97
2017-07-28T20:16:07.903Z,98868.67
2017-07-28T20:18:37.137Z,98868.77
2017-07-28T20:21:06.347Z,98867.89
2017-07-28T20:23:35.778Z,98867.38
2017-07-28T20:26:04.971Z,98874.20
2017-07-28T20:28:34.166Z,98874.56
2017-07-28T20:31:03.642Z,98871.36
2017-07-28T20:33:32.822Z,98877.36
2017-07-28T20:36:01.979Z,98874.83
2017-07-28T20:38:31.468Z,98878.41
2017-07-28T20:41:00.663Z,98876.08
2017-07-28T20:43:29.815Z,98880.23
2017-07-28T20:45:59.425Z,98884.92
2017-07-28T20:48:28.638Z,98884.36
2017-07-28T20:50:57.834Z,98882.47
2017-07-28T20:53:27.274Z,98892.49
2017-07-28T20:55:56.459Z,98891.25
2017-07-28T20:58:25.635Z,98894.92
2017-07-28T21:00:55.102Z,98896.41
2017-07-28T21:03:24.263Z,98889.63
2017-07-28T21:05:53.780Z,98896.64
2017-07-28T21:08:23.250Z,98896.64
2017-07-28T21:10:52.602Z,98902.58
2017-07-28T21:13:21.986Z,98900.55
2017-07-28T21:15:51.489Z,98907.84
2017-07-28T21:18:20.951Z,98909.70
2017-07-28T21:20:50.098Z,98908.39
2017-07-28T21:23:19.571Z,98908.25
2017-07-28T21:25:48.934Z,98910.28
2017-07-28T21:28:18.119Z,98910.28
2017-07-28T21:30:47.563Z,98914.74
2017-07-28T21:33:16.734Z,98907.78
2017-07-28T21:35:45.901Z,98902.91
2017-07-28T21:38:15.403Z,98901.66
2017-07-28T21:40:44.566Z,98899.39
2017-07-28T21:43:13.721Z,98893.44
2017-07-28T21:45:43.163Z,98892.37
2017-07-28T21:48:12.307Z,98890.16
2017-07-28T21:50:41.462Z,98888.81
2017-07-28T21:53:11.119Z,98886.39
2017-07-28T21:55:40.635Z,98881.34
2017-07-28T21:58:09.810Z,98875.45
2017-07-28T22:00:39.643Z,98871.36
2017-07-28T22:03:08.935Z,98873.55
2017-07-28T22:05:38.107Z,98867.84
2017-07-28T22:08:07.530Z,98867.42
2017-07-28T22:10:36.743Z,98872.71
2017-07-28T22:13:05.953Z,98877.94
2017-07-28T22:15:35.382Z,98869.09
2017-07-28T22:18:04.820Z,98875.16
2017-07-28T22:20:33.953Z,98868.53
2017-07-28T22:23:03.936Z,98867.22
2017-07-28T22:25:33.583Z,98864.95
2017-07-28T22:28:04.238Z,98861.94
2017-07-28T22:30:34.235Z,98864.06
2017-07-28T22:33:03.406Z,98857.19
2017-07-28T22:35:32.576Z,98863.16
2017-07-28T22:38:02.359Z,98858.68
2017-07-28T22:40:31.530Z,98859.88
2017-07-28T22:43:02.394Z,98858.86
2017-07-28T22:45:32.033Z,98848.38
2017-07-28T22:48:02.287Z,98852.47
2017-07-28T22:50:31.446Z,98855.16
2017-07-28T22:53:00.877Z,98849.69
2017-07-28T22:55:30.074Z,98849.51
2017-07-28T22:58:00.405Z,98856.71
2017-07-28T23:00:30.270Z,98856.17
2017-07-28T23:03:01.459Z,98856.53
2017-07-28T23:05:31.172Z,98854.29
2017-07-28T23:08:02.391Z,98857.22
2017-07-28T23:10:31.836Z,98861.58
2017-07-28T23:13:02.759Z,98864.69
2017-07-28T23:15:32.174Z,98868.55
2017-07-28T23:18:02.269Z,98872.59
2017-07-28T23:20:31.790Z,98867.64
2017-07-28T23:23:02.631Z,98864.45
2017-07-28T23:25:32.016Z,98869.30
2017-07-28T23:28:02.209Z,98868.47
2017-07-28T23:30:31.629Z,98862.48
2017-07-28T23:33:02.393Z,98865.02
2017-07-28T23:35:31.771Z,98861.91
2017-07-28T23:38:02.127Z,98861.89
2017-07-28T23:40:31.310Z,98856.20
2017-07-28T23:43:02.132Z,98858.03
2017-07-28T23:45:31.570Z,98861.41
2017-07-28T23:48:04.224Z,98857.45
2017-07-28T23:50:33.375Z,98860.66
2017-07-28T23:53:03.185Z,98861.44
2017-07-28T23:55:32.356Z,98859.22
2017-07-28T23:58:04.729Z,98856.45
